SEJ2C OERK-OEDF
Flight info
| Callsign | SEJ2C |
|---|---|
| Flight time | 0h 39m |
| Altitude | 27000 |
| Route | EGPIN H744 ITUNI N687 MIBRA |
| Aircraft | B738/M-SDE2E3FGHIRWXY/LB1 |
Departure
| Time | 2026-05-08 17:09 |
|---|---|
| Airport | King Khalid International Airport (OERK) |
Arrival
| Time | 2026-05-08 17:48 |
|---|---|
| Airport | King Fahd International Airport (OEDF) |
| Time | Latitude | Longitude | Altitude | Speed | Heading |
|---|---|---|---|---|---|
| 2026-05-08 16:44 | 24.96195 | 46.70339 | 2029 ft | 0 kts | 236° |
| 2026-05-08 16:54 | 24.96197 | 46.70342 | 2029 ft | 2 kts | 237° |
| 2026-05-08 16:54 | 24.96207 | 46.70359 | 2036 ft | 3 kts | 237° |
| 2026-05-08 16:54 | 24.96218 | 46.70378 | 2036 ft | 3 kts | 237° |
| 2026-05-08 16:55 | 24.96229 | 46.70397 | 2034 ft | 3 kts | 235° |
| 2026-05-08 16:55 | 24.96241 | 46.70415 | 2039 ft | 3 kts | 231° |
| 2026-05-08 16:55 | 24.96254 | 46.70432 | 2039 ft | 3 kts | 231° |
| 2026-05-08 16:55 | 24.96264 | 46.70446 | 2037 ft | 1 kts | 229° |
| 2026-05-08 16:56 | 24.96264 | 46.70447 | 2037 ft | 0 kts | 229° |
| 2026-05-08 16:56 | 24.96275 | 46.70449 | 2038 ft | 2 kts | 153° |
| 2026-05-08 16:57 | 24.96287 | 46.70438 | 2038 ft | 2 kts | 128° |
| 2026-05-08 16:57 | 24.96296 | 46.70423 | 2039 ft | 2 kts | 128° |
| 2026-05-08 16:57 | 24.96308 | 46.70412 | 2037 ft | 2 kts | 150° |
| 2026-05-08 16:57 | 24.96311 | 46.70410 | 2036 ft | 0 kts | 150° |
| 2026-05-08 16:59 | 24.96309 | 46.70411 | 2036 ft | 1 kts | 150° |
| 2026-05-08 16:59 | 24.96288 | 46.70425 | 2039 ft | 6 kts | 150° |
| 2026-05-08 17:00 | 24.96237 | 46.70457 | 2033 ft | 11 kts | 150° |
| 2026-05-08 17:00 | 24.96212 | 46.70473 | 2033 ft | 4 kts | 150° |
| 2026-05-08 17:00 | 24.96176 | 46.70495 | 2029 ft | 8 kts | 150° |
| 2026-05-08 17:00 | 24.96154 | 46.70509 | 2032 ft | 0 kts | 150° |
| 2026-05-08 17:02 | 24.96153 | 46.70510 | 2032 ft | 1 kts | 150° |
| 2026-05-08 17:02 | 24.96132 | 46.70523 | 2032 ft | 6 kts | 150° |
| 2026-05-08 17:03 | 24.96085 | 46.70553 | 2029 ft | 10 kts | 150° |
| 2026-05-08 17:03 | 24.96016 | 46.70596 | 2029 ft | 13 kts | 150° |
| 2026-05-08 17:03 | 24.95925 | 46.70654 | 2029 ft | 17 kts | 150° |
| 2026-05-08 17:03 | 24.95813 | 46.70725 | 2035 ft | 20 kts | 150° |
| 2026-05-08 17:04 | 24.95685 | 46.70806 | 2033 ft | 23 kts | 150° |
| 2026-05-08 17:04 | 24.95540 | 46.70898 | 2030 ft | 25 kts | 150° |
| 2026-05-08 17:04 | 24.95379 | 46.71000 | 2030 ft | 28 kts | 150° |
| 2026-05-08 17:04 | 24.95363 | 46.71139 | 2032 ft | 20 kts | 59° |
| 2026-05-08 17:05 | 24.95412 | 46.71274 | 2030 ft | 19 kts | 105° |
| 2026-05-08 17:05 | 24.95309 | 46.71361 | 2030 ft | 19 kts | 150° |
| 2026-05-08 17:05 | 24.95198 | 46.71431 | 2030 ft | 18 kts | 150° |
| 2026-05-08 17:05 | 24.95091 | 46.71499 | 2032 ft | 17 kts | 150° |
| 2026-05-08 17:06 | 24.94987 | 46.71565 | 2037 ft | 17 kts | 150° |
| 2026-05-08 17:06 | 24.94887 | 46.71628 | 2034 ft | 16 kts | 150° |
| 2026-05-08 17:06 | 24.94789 | 46.71690 | 2033 ft | 17 kts | 150° |
| 2026-05-08 17:06 | 24.94678 | 46.71761 | 2031 ft | 20 kts | 150° |
| 2026-05-08 17:07 | 24.94551 | 46.71841 | 2035 ft | 22 kts | 150° |
| 2026-05-08 17:07 | 24.94410 | 46.71929 | 2035 ft | 24 kts | 150° |
| 2026-05-08 17:07 | 24.94304 | 46.72058 | 2035 ft | 24 kts | 76° |
| 2026-05-08 17:07 | 24.94384 | 46.72214 | 2037 ft | 23 kts | 55° |
| 2026-05-08 17:08 | 24.94473 | 46.72234 | 2035 ft | 0 kts | 329° |
| 2026-05-08 17:08 | 24.94500 | 46.72216 | 2036 ft | 25 kts | 330° |
| 2026-05-08 17:08 | 24.94909 | 46.71957 | 2037 ft | 109 kts | 330° |
| 2026-05-08 17:08 | 24.95784 | 46.71394 | 2044 ft | 178 kts | 330° |
| 2026-05-08 17:09 | 24.96928 | 46.70677 | 2701 ft | 195 kts | 338° |
| 2026-05-08 17:09 | 24.98167 | 46.70136 | 3710 ft | 187 kts | 343° |
| 2026-05-08 17:09 | 24.99383 | 46.69618 | 4619 ft | 193 kts | 341° |
| 2026-05-08 17:09 | 25.00685 | 46.69063 | 4872 ft | 217 kts | 345° |
| 2026-05-08 17:10 | 25.02244 | 46.69095 | 5116 ft | 238 kts | 23° |
| 2026-05-08 17:10 | 25.03509 | 46.70310 | 5555 ft | 256 kts | 57° |
| 2026-05-08 17:10 | 25.04307 | 46.72146 | 6051 ft | 272 kts | 67° |
| 2026-05-08 17:10 | 25.05019 | 46.74077 | 6960 ft | 274 kts | 70° |
| 2026-05-08 17:11 | 25.05735 | 46.76053 | 7819 ft | 280 kts | 70° |
| 2026-05-08 17:11 | 25.06472 | 46.78086 | 8581 ft | 290 kts | 71° |
| 2026-05-08 17:11 | 25.07237 | 46.80179 | 9400 ft | 298 kts | 71° |
| 2026-05-08 17:11 | 25.08025 | 46.82322 | 10185 ft | 305 kts | 71° |
| 2026-05-08 17:12 | 25.08850 | 46.84552 | 10596 ft | 327 kts | 71° |
| 2026-05-08 17:12 | 25.09740 | 46.86950 | 11043 ft | 344 kts | 70° |
| 2026-05-08 17:12 | 25.10662 | 46.89415 | 11717 ft | 352 kts | 70° |
| 2026-05-08 17:12 | 25.11606 | 46.91933 | 12478 ft | 357 kts | 70° |
| 2026-05-08 17:13 | 25.12563 | 46.94482 | 13256 ft | 362 kts | 69° |
| 2026-05-08 17:13 | 25.13536 | 46.97071 | 13985 ft | 368 kts | 69° |
| 2026-05-08 17:13 | 25.14520 | 46.99693 | 14667 ft | 372 kts | 69° |
| 2026-05-08 17:13 | 25.15519 | 47.02355 | 15337 ft | 378 kts | 69° |
| 2026-05-08 17:14 | 25.16530 | 47.05052 | 16021 ft | 383 kts | 69° |
| 2026-05-08 17:14 | 25.17552 | 47.07780 | 16707 ft | 387 kts | 68° |
| 2026-05-08 17:14 | 25.18588 | 47.10548 | 17363 ft | 393 kts | 68° |
| 2026-05-08 17:14 | 25.19637 | 47.13354 | 18024 ft | 398 kts | 68° |
| 2026-05-08 17:15 | 25.20698 | 47.16192 | 18630 ft | 402 kts | 68° |
| 2026-05-08 17:15 | 25.21768 | 47.19058 | 18959 ft | 403 kts | 68° |
| 2026-05-08 17:15 | 25.22836 | 47.21919 | 18992 ft | 403 kts | 68° |
| 2026-05-08 17:15 | 25.23902 | 47.24779 | 19000 ft | 404 kts | 68° |
| 2026-05-08 17:16 | 25.24973 | 47.27651 | 19008 ft | 404 kts | 68° |
| 2026-05-08 17:16 | 25.26040 | 47.30519 | 19005 ft | 404 kts | 68° |
| 2026-05-08 17:16 | 25.27094 | 47.33350 | 19005 ft | 404 kts | 68° |
| 2026-05-08 17:16 | 25.28173 | 47.36254 | 19003 ft | 403 kts | 68° |
| 2026-05-08 17:17 | 25.29232 | 47.39102 | 18993 ft | 403 kts | 68° |
| 2026-05-08 17:17 | 25.30293 | 47.41960 | 19002 ft | 402 kts | 68° |
| 2026-05-08 17:17 | 25.31354 | 47.44821 | 19000 ft | 402 kts | 68° |
| 2026-05-08 17:17 | 25.32425 | 47.47708 | 19179 ft | 410 kts | 68° |
| 2026-05-08 17:18 | 25.33507 | 47.50629 | 19883 ft | 409 kts | 68° |
| 2026-05-08 17:18 | 25.34219 | 47.52552 | 20390 ft | 408 kts | 68° |
| 2026-05-08 17:18 | 25.35658 | 47.56442 | 20897 ft | 408 kts | 68° |
| 2026-05-08 17:18 | 25.36733 | 47.59348 | 20972 ft | 408 kts | 68° |
| 2026-05-08 17:19 | 25.37442 | 47.61266 | 20979 ft | 407 kts | 69° |
| 2026-05-08 17:19 | 25.38510 | 47.64160 | 20981 ft | 406 kts | 69° |
| 2026-05-08 17:19 | 25.39577 | 47.67051 | 20988 ft | 406 kts | 69° |
| 2026-05-08 17:19 | 25.40642 | 47.69937 | 20985 ft | 405 kts | 69° |
| 2026-05-08 17:20 | 25.41747 | 47.72807 | 20976 ft | 406 kts | 67° |
| 2026-05-08 17:20 | 25.42911 | 47.75646 | 20977 ft | 406 kts | 66° |
| 2026-05-08 17:20 | 25.44493 | 47.79440 | 20981 ft | 406 kts | 66° |
| 2026-05-08 17:20 | 25.45273 | 47.81319 | 20964 ft | 406 kts | 66° |
| 2026-05-08 17:21 | 25.46446 | 47.84162 | 20974 ft | 406 kts | 66° |
| 2026-05-08 17:21 | 25.47614 | 47.87011 | 20970 ft | 406 kts | 66° |
| 2026-05-08 17:21 | 25.48774 | 47.89854 | 20962 ft | 406 kts | 66° |
| 2026-05-08 17:21 | 25.49935 | 47.92704 | 20965 ft | 406 kts | 66° |
| 2026-05-08 17:22 | 25.51096 | 47.95557 | 20963 ft | 406 kts | 67° |
| 2026-05-08 17:22 | 25.52255 | 47.98406 | 20961 ft | 406 kts | 67° |
| 2026-05-08 17:22 | 25.53386 | 48.01189 | 20960 ft | 406 kts | 67° |
| 2026-05-08 17:22 | 25.54533 | 48.04010 | 20954 ft | 406 kts | 67° |
| 2026-05-08 17:23 | 25.55690 | 48.06861 | 20956 ft | 406 kts | 67° |
| 2026-05-08 17:23 | 25.56848 | 48.09714 | 20953 ft | 406 kts | 67° |
| 2026-05-08 17:23 | 25.58001 | 48.12558 | 20947 ft | 401 kts | 67° |
| 2026-05-08 17:23 | 25.59131 | 48.15346 | 20980 ft | 392 kts | 67° |
| 2026-05-08 17:24 | 25.60254 | 48.18120 | 21151 ft | 399 kts | 67° |
| 2026-05-08 17:24 | 25.61381 | 48.20908 | 21110 ft | 393 kts | 67° |
| 2026-05-08 17:24 | 25.62492 | 48.23656 | 20865 ft | 388 kts | 67° |
| 2026-05-08 17:24 | 25.63588 | 48.26367 | 20484 ft | 385 kts | 67° |
| 2026-05-08 17:25 | 25.64679 | 48.29072 | 20087 ft | 383 kts | 67° |
| 2026-05-08 17:25 | 25.65760 | 48.31750 | 19856 ft | 378 kts | 67° |
| 2026-05-08 17:25 | 25.66828 | 48.34398 | 19619 ft | 374 kts | 67° |
| 2026-05-08 17:25 | 25.67886 | 48.37021 | 19389 ft | 373 kts | 67° |
| 2026-05-08 17:26 | 25.69005 | 48.39631 | 19159 ft | 377 kts | 62° |
| 2026-05-08 17:26 | 25.70358 | 48.42132 | 18939 ft | 378 kts | 58° |
| 2026-05-08 17:26 | 25.71781 | 48.44582 | 18709 ft | 376 kts | 57° |
| 2026-05-08 17:26 | 25.73201 | 48.46989 | 18576 ft | 371 kts | 57° |
| 2026-05-08 17:27 | 25.74610 | 48.49391 | 18539 ft | 372 kts | 57° |
| 2026-05-08 17:27 | 25.76009 | 48.51797 | 18534 ft | 371 kts | 58° |
| 2026-05-08 17:27 | 25.77397 | 48.54205 | 18528 ft | 370 kts | 58° |
| 2026-05-08 17:27 | 25.78783 | 48.56624 | 18522 ft | 371 kts | 58° |
| 2026-05-08 17:28 | 25.80163 | 48.59040 | 18523 ft | 371 kts | 58° |
| 2026-05-08 17:28 | 25.81542 | 48.61458 | 18526 ft | 371 kts | 58° |
| 2026-05-08 17:28 | 25.82923 | 48.63883 | 18521 ft | 371 kts | 58° |
| 2026-05-08 17:28 | 25.84300 | 48.66303 | 18524 ft | 371 kts | 58° |
| 2026-05-08 17:29 | 25.85678 | 48.68726 | 18520 ft | 371 kts | 58° |
| 2026-05-08 17:29 | 25.87055 | 48.71149 | 18515 ft | 370 kts | 58° |
| 2026-05-08 17:29 | 25.88427 | 48.73564 | 18515 ft | 370 kts | 58° |
| 2026-05-08 17:29 | 25.89799 | 48.75979 | 18511 ft | 369 kts | 58° |
| 2026-05-08 17:30 | 25.91167 | 48.78390 | 18511 ft | 369 kts | 58° |
| 2026-05-08 17:30 | 25.92535 | 48.80802 | 18511 ft | 369 kts | 58° |
| 2026-05-08 17:30 | 25.93901 | 48.83210 | 18509 ft | 368 kts | 58° |
| 2026-05-08 17:30 | 25.95270 | 48.85616 | 18358 ft | 369 kts | 58° |
| 2026-05-08 17:31 | 25.96666 | 48.87993 | 17878 ft | 371 kts | 57° |
| 2026-05-08 17:31 | 25.98104 | 48.90397 | 17447 ft | 368 kts | 57° |
| 2026-05-08 17:31 | 25.99506 | 48.92732 | 17031 ft | 366 kts | 57° |
| 2026-05-08 17:31 | 26.00929 | 48.95104 | 16621 ft | 364 kts | 57° |
| 2026-05-08 17:32 | 26.02309 | 48.97412 | 16234 ft | 362 kts | 57° |
| 2026-05-08 17:32 | 26.03715 | 48.99768 | 15836 ft | 360 kts | 57° |
| 2026-05-08 17:32 | 26.05041 | 49.01995 | 15460 ft | 358 kts | 57° |
| 2026-05-08 17:32 | 26.06411 | 49.04298 | 15077 ft | 356 kts | 57° |
| 2026-05-08 17:33 | 26.07776 | 49.06595 | 14677 ft | 355 kts | 57° |
| 2026-05-08 17:33 | 26.09134 | 49.08884 | 14281 ft | 354 kts | 57° |
| 2026-05-08 17:33 | 26.10487 | 49.11164 | 13897 ft | 352 kts | 57° |
| 2026-05-08 17:33 | 26.11835 | 49.13437 | 13471 ft | 351 kts | 57° |
| 2026-05-08 17:34 | 26.13174 | 49.15697 | 13109 ft | 348 kts | 57° |
| 2026-05-08 17:34 | 26.14496 | 49.17929 | 12807 ft | 343 kts | 57° |
| 2026-05-08 17:34 | 26.15804 | 49.20137 | 12428 ft | 340 kts | 57° |
| 2026-05-08 17:34 | 26.17102 | 49.22331 | 12057 ft | 338 kts | 57° |
| 2026-05-08 17:35 | 26.18391 | 49.24510 | 11688 ft | 336 kts | 57° |
| 2026-05-08 17:35 | 26.19672 | 49.26677 | 11322 ft | 334 kts | 57° |
| 2026-05-08 17:35 | 26.20948 | 49.28837 | 10948 ft | 333 kts | 56° |
| 2026-05-08 17:35 | 26.22216 | 49.30983 | 10586 ft | 331 kts | 56° |
| 2026-05-08 17:36 | 26.23472 | 49.33111 | 10365 ft | 324 kts | 56° |
| 2026-05-08 17:36 | 26.24694 | 49.35182 | 10203 ft | 316 kts | 56° |
| 2026-05-08 17:36 | 26.25885 | 49.37202 | 10059 ft | 308 kts | 56° |
| 2026-05-08 17:36 | 26.27055 | 49.39187 | 9757 ft | 306 kts | 56° |
| 2026-05-08 17:37 | 26.28222 | 49.41166 | 9433 ft | 305 kts | 56° |
| 2026-05-08 17:37 | 26.29382 | 49.43137 | 9103 ft | 303 kts | 56° |
| 2026-05-08 17:37 | 26.30534 | 49.45093 | 8800 ft | 301 kts | 56° |
| 2026-05-08 17:37 | 26.31680 | 49.47039 | 8491 ft | 300 kts | 55° |
| 2026-05-08 17:38 | 26.32820 | 49.48977 | 8183 ft | 298 kts | 55° |
| 2026-05-08 17:38 | 26.33948 | 49.50896 | 7889 ft | 295 kts | 54° |
| 2026-05-08 17:38 | 26.35082 | 49.52823 | 7514 ft | 297 kts | 55° |
| 2026-05-08 17:38 | 26.35907 | 49.54920 | 7167 ft | 299 kts | 79° |
| 2026-05-08 17:39 | 26.35792 | 49.57214 | 6900 ft | 298 kts | 105° |
| 2026-05-08 17:39 | 26.34872 | 49.59263 | 6636 ft | 296 kts | 125° |
| 2026-05-08 17:39 | 26.33626 | 49.61082 | 6347 ft | 295 kts | 128° |
| 2026-05-08 17:39 | 26.32355 | 49.62865 | 6059 ft | 292 kts | 128° |
| 2026-05-08 17:40 | 26.31109 | 49.64617 | 5775 ft | 290 kts | 128° |
| 2026-05-08 17:40 | 26.29871 | 49.66378 | 5510 ft | 287 kts | 127° |
| 2026-05-08 17:40 | 26.28648 | 49.68134 | 5249 ft | 285 kts | 127° |
| 2026-05-08 17:40 | 26.27439 | 49.69876 | 4976 ft | 283 kts | 127° |
| 2026-05-08 17:41 | 26.26273 | 49.71557 | 4848 ft | 264 kts | 127° |
| 2026-05-08 17:41 | 26.25227 | 49.73136 | 4711 ft | 243 kts | 116° |
| 2026-05-08 17:41 | 26.24865 | 49.74856 | 4567 ft | 217 kts | 83° |
| 2026-05-08 17:41 | 26.25050 | 49.76439 | 4457 ft | 195 kts | 68° |
| 2026-05-08 17:42 | 26.25422 | 49.77855 | 4104 ft | 194 kts | 68° |
| 2026-05-08 17:42 | 26.25795 | 49.79291 | 3810 ft | 192 kts | 68° |
| 2026-05-08 17:42 | 26.26154 | 49.80701 | 3581 ft | 185 kts | 66° |
| 2026-05-08 17:42 | 26.26499 | 49.82042 | 3405 ft | 184 kts | 63° |
| 2026-05-08 17:43 | 26.27199 | 49.83215 | 3252 ft | 177 kts | 32° |
| 2026-05-08 17:43 | 26.28229 | 49.83874 | 3076 ft | 165 kts | 9° |
| 2026-05-08 17:43 | 26.29246 | 49.83929 | 3074 ft | 139 kts | 343° |
| 2026-05-08 17:43 | 26.30198 | 49.83758 | 2913 ft | 133 kts | 344° |
| 2026-05-08 17:44 | 26.31085 | 49.83577 | 2745 ft | 129 kts | 342° |
| 2026-05-08 17:44 | 26.31956 | 49.83350 | 2598 ft | 129 kts | 341° |
| 2026-05-08 17:44 | 26.32833 | 49.83097 | 2438 ft | 130 kts | 341° |
| 2026-05-08 17:44 | 26.33704 | 49.82835 | 2262 ft | 129 kts | 341° |
| 2026-05-08 17:45 | 26.34560 | 49.82573 | 2101 ft | 127 kts | 341° |
| 2026-05-08 17:45 | 26.35405 | 49.82311 | 1942 ft | 126 kts | 342° |
| 2026-05-08 17:45 | 26.36247 | 49.82050 | 1784 ft | 126 kts | 341° |
| 2026-05-08 17:45 | 26.37091 | 49.81788 | 1606 ft | 127 kts | 342° |
| 2026-05-08 17:46 | 26.37957 | 49.81518 | 1461 ft | 129 kts | 343° |
| 2026-05-08 17:46 | 26.38820 | 49.81250 | 1291 ft | 128 kts | 343° |
| 2026-05-08 17:46 | 26.39695 | 49.80979 | 1142 ft | 134 kts | 342° |
| 2026-05-08 17:46 | 26.40619 | 49.80691 | 950 ft | 138 kts | 343° |
| 2026-05-08 17:47 | 26.41525 | 49.80408 | 804 ft | 133 kts | 347° |
| 2026-05-08 17:47 | 26.42416 | 49.80134 | 663 ft | 132 kts | 345° |
| 2026-05-08 17:47 | 26.43303 | 49.79842 | 556 ft | 132 kts | 346° |
| 2026-05-08 17:47 | 26.43898 | 49.79667 | 411 ft | 135 kts | 351° |
| 2026-05-08 17:48 | 26.45102 | 49.79309 | 172 ft | 133 kts | 346° |
| 2026-05-08 17:48 | 26.45999 | 49.79047 | 81 ft | 126 kts | 340° |
| 2026-05-08 17:48 | 26.46717 | 49.78800 | 73 ft | 86 kts | 344° |
| 2026-05-08 17:48 | 26.47145 | 49.78667 | 75 ft | 42 kts | 345° |
| 2026-05-08 17:49 | 26.47295 | 49.78621 | 72 ft | 13 kts | 345° |
| 2026-05-08 17:49 | 26.47412 | 49.78585 | 77 ft | 22 kts | 344° |
| 2026-05-08 17:49 | 26.47576 | 49.78552 | 74 ft | 24 kts | 359° |
| 2026-05-08 17:49 | 26.47734 | 49.78579 | 69 ft | 23 kts | 12° |
| 2026-05-08 17:50 | 26.47884 | 49.78622 | 74 ft | 22 kts | 16° |
| 2026-05-08 17:50 | 26.47960 | 49.78728 | 71 ft | 21 kts | 131° |
| 2026-05-08 17:50 | 26.47824 | 49.78782 | 66 ft | 21 kts | 165° |
| 2026-05-08 17:50 | 26.47713 | 49.78863 | 71 ft | 20 kts | 97° |
| 2026-05-08 17:51 | 26.47802 | 49.78949 | 66 ft | 19 kts | 347° |
| 2026-05-08 17:51 | 26.47856 | 49.78935 | 72 ft | 6 kts | 354° |
| 2026-05-08 17:51 | 26.47891 | 49.78959 | 74 ft | 6 kts | 52° |
| 2026-05-08 17:51 | 26.47908 | 49.79000 | 67 ft | 4 kts | 72° |
| 2026-05-08 17:52 | 26.47910 | 49.79006 | 68 ft | 0 kts | 73° |